sensor_id;sensor_type;location;lat;lon;timestamp;P1;durP1;ratioP1;P2;durP2;ratioP2
30697;SDS011;17448;47.200;10.902;2022-07-29T00:01:03;6.85;;;2.80;;
30697;SDS011;17448;47.200;10.902;2022-07-29T00:03:30;4.55;;;2.83;;
30697;SDS011;17448;47.200;10.902;2022-07-29T00:05:58;5.45;;;3.55;;
30697;SDS011;17448;47.200;10.902;2022-07-29T00:08:25;5.40;;;3.15;;
30697;SDS011;17448;47.200;10.902;2022-07-29T00:10:51;6.35;;;3.33;;
30697;SDS011;17448;47.200;10.902;2022-07-29T00:13:18;5.10;;;3.33;;
30697;SDS011;17448;47.200;10.902;2022-07-29T00:15:44;6.63;;;3.30;;
30697;SDS011;17448;47.200;10.902;2022-07-29T00:18:10;4.53;;;2.90;;
30697;SDS011;17448;47.200;10.902;2022-07-29T00:20:36;3.83;;;3.08;;
30697;SDS011;17448;47.200;10.902;2022-07-29T00:23:02;3.60;;;2.97;;
30697;SDS011;17448;47.200;10.902;2022-07-29T00:25:29;3.78;;;3.35;;
30697;SDS011;17448;47.200;10.902;2022-07-29T00:27:55;4.32;;;3.58;;
30697;SDS011;17448;47.200;10.902;2022-07-29T00:30:21;3.97;;;3.10;;
30697;SDS011;17448;47.200;10.902;2022-07-29T00:32:47;3.85;;;2.92;;
30697;SDS011;17448;47.200;10.902;2022-07-29T00:35:13;3.00;;;2.70;;
30697;SDS011;17448;47.200;10.902;2022-07-29T00:37:58;5.50;;;3.15;;
30697;SDS011;17448;47.200;10.902;2022-07-29T00:40:24;5.15;;;2.90;;
30697;SDS011;17448;47.200;10.902;2022-07-29T00:45:26;7.60;;;3.40;;
30697;SDS011;17448;47.200;10.902;2022-07-29T00:47:53;4.75;;;3.42;;
30697;SDS011;17448;47.200;10.902;2022-07-29T00:50:19;4.90;;;2.92;;
30697;SDS011;17448;47.200;10.902;2022-07-29T00:52:46;3.85;;;2.95;;
30697;SDS011;17448;47.200;10.902;2022-07-29T00:55:13;4.15;;;3.00;;
30697;SDS011;17448;47.200;10.902;2022-07-29T00:57:40;5.00;;;3.30;;
30697;SDS011;17448;47.200;10.902;2022-07-29T01:00:07;4.38;;;3.60;;
30697;SDS011;17448;47.200;10.902;2022-07-29T01:02:34;5.38;;;3.40;;
30697;SDS011;17448;47.200;10.902;2022-07-29T01:05:01;7.85;;;3.58;;
30697;SDS011;17448;47.200;10.902;2022-07-29T01:07:28;5.80;;;3.40;;
30697;SDS011;17448;47.200;10.902;2022-07-29T01:09:55;5.80;;;3.20;;
30697;SDS011;17448;47.200;10.902;2022-07-29T01:12:23;7.75;;;3.30;;
30697;SDS011;17448;47.200;10.902;2022-07-29T01:14:50;4.80;;;3.10;;
30697;SDS011;17448;47.200;10.902;2022-07-29T01:17:21;4.82;;;3.22;;
30697;SDS011;17448;47.200;10.902;2022-07-29T01:30:21;4.63;;;2.97;;
30697;SDS011;17448;47.200;10.902;2022-07-29T01:32:48;4.85;;;3.30;;
30697;SDS011;17448;47.200;10.902;2022-07-29T01:35:17;5.80;;;3.65;;
30697;SDS011;17448;47.200;10.902;2022-07-29T01:37:46;3.97;;;3.08;;
30697;SDS011;17448;47.200;10.902;2022-07-29T01:40:23;5.05;;;3.47;;
30697;SDS011;17448;47.200;10.902;2022-07-29T01:42:51;5.10;;;3.47;;
30697;SDS011;17448;47.200;10.902;2022-07-29T01:47:46;6.15;;;4.15;;
30697;SDS011;17448;47.200;10.902;2022-07-29T01:50:14;7.53;;;3.53;;
30697;SDS011;17448;47.200;10.902;2022-07-29T01:52:46;4.15;;;3.50;;
30697;SDS011;17448;47.200;10.902;2022-07-29T01:55:16;8.57;;;3.55;;
30697;SDS011;17448;47.200;10.902;2022-07-29T01:57:44;4.63;;;3.20;;
30697;SDS011;17448;47.200;10.902;2022-07-29T02:00:11;5.03;;;3.20;;
30697;SDS011;17448;47.200;10.902;2022-07-29T02:02:39;4.55;;;3.35;;
30697;SDS011;17448;47.200;10.902;2022-07-29T02:05:06;4.75;;;3.20;;
30697;SDS011;17448;47.200;10.902;2022-07-29T02:07:34;6.72;;;3.42;;
30697;SDS011;17448;47.200;10.902;2022-07-29T02:10:01;4.35;;;3.22;;
30697;SDS011;17448;47.200;10.902;2022-07-29T02:12:28;5.15;;;3.30;;
30697;SDS011;17448;47.200;10.902;2022-07-29T02:14:55;4.85;;;4.05;;
30697;SDS011;17448;47.200;10.902;2022-07-29T02:17:23;5.07;;;3.47;;
30697;SDS011;17448;47.200;10.902;2022-07-29T02:19:51;4.28;;;3.42;;
30697;SDS011;17448;47.200;10.902;2022-07-29T02:22:18;4.10;;;3.22;;
30697;SDS011;17448;47.200;10.902;2022-07-29T02:24:45;6.20;;;3.30;;
30697;SDS011;17448;47.200;10.902;2022-07-29T02:27:12;5.45;;;3.35;;
30697;SDS011;17448;47.200;10.902;2022-07-29T02:29:39;6.97;;;3.63;;
30697;SDS011;17448;47.200;10.902;2022-07-29T02:32:06;5.18;;;3.25;;
30697;SDS011;17448;47.200;10.902;2022-07-29T02:34:32;7.13;;;3.78;;
30697;SDS011;17448;47.200;10.902;2022-07-29T02:36:59;8.73;;;3.38;;
30697;SDS011;17448;47.200;10.902;2022-07-29T02:39:25;5.13;;;3.30;;
30697;SDS011;17448;47.200;10.902;2022-07-29T02:42:03;5.82;;;3.58;;
30697;SDS011;17448;47.200;10.902;2022-07-29T02:44:31;7.80;;;3.80;;
30697;SDS011;17448;47.200;10.902;2022-07-29T02:47:20;4.57;;;3.20;;
30697;SDS011;17448;47.200;10.902;2022-07-29T02:49:54;5.82;;;3.28;;
30697;SDS011;17448;47.200;10.902;2022-07-29T02:54:51;7.63;;;3.03;;
30697;SDS011;17448;47.200;10.902;2022-07-29T02:57:20;5.65;;;2.80;;
30697;SDS011;17448;47.200;10.902;2022-07-29T02:59:47;4.35;;;2.90;;
30697;SDS011;17448;47.200;10.902;2022-07-29T03:02:14;5.05;;;2.83;;
30697;SDS011;17448;47.200;10.902;2022-07-29T03:10:19;2.80;;;2.40;;
30697;SDS011;17448;47.200;10.902;2022-07-29T03:12:48;3.22;;;2.50;;
30697;SDS011;17448;47.200;10.902;2022-07-29T03:15:15;4.50;;;2.63;;
30697;SDS011;17448;47.200;10.902;2022-07-29T03:17:42;3.72;;;2.35;;
30697;SDS011;17448;47.200;10.902;2022-07-29T03:20:09;5.40;;;2.90;;
30697;SDS011;17448;47.200;10.902;2022-07-29T03:22:39;3.22;;;2.80;;
30697;SDS011;17448;47.200;10.902;2022-07-29T03:27:35;3.75;;;2.53;;
30697;SDS011;17448;47.200;10.902;2022-07-29T03:30:01;3.25;;;2.70;;
30697;SDS011;17448;47.200;10.902;2022-07-29T03:32:27;7.72;;;2.60;;
30697;SDS011;17448;47.200;10.902;2022-07-29T03:34:54;3.83;;;2.17;;
30697;SDS011;17448;47.200;10.902;2022-07-29T03:37:20;5.00;;;2.67;;
30697;SDS011;17448;47.200;10.902;2022-07-29T03:39:46;3.28;;;2.63;;
30697;SDS011;17448;47.200;10.902;2022-07-29T03:42:13;3.00;;;2.50;;
30697;SDS011;17448;47.200;10.902;2022-07-29T03:44:41;6.07;;;2.58;;
30697;SDS011;17448;47.200;10.902;2022-07-29T03:47:08;9.65;;;3.33;;
30697;SDS011;17448;47.200;10.902;2022-07-29T03:49:35;5.07;;;3.38;;
30697;SDS011;17448;47.200;10.902;2022-07-29T03:52:02;5.45;;;3.25;;
30697;SDS011;17448;47.200;10.902;2022-07-29T03:54:28;5.00;;;2.70;;
30697;SDS011;17448;47.200;10.902;2022-07-29T03:56:54;4.57;;;2.60;;
30697;SDS011;17448;47.200;10.902;2022-07-29T03:59:23;6.30;;;2.63;;
30697;SDS011;17448;47.200;10.902;2022-07-29T04:01:49;4.13;;;2.63;;
30697;SDS011;17448;47.200;10.902;2022-07-29T04:04:16;5.03;;;2.55;;
30697;SDS011;17448;47.200;10.902;2022-07-29T04:06:43;6.97;;;3.63;;
30697;SDS011;17448;47.200;10.902;2022-07-29T04:09:10;5.97;;;2.95;;
30697;SDS011;17448;47.200;10.902;2022-07-29T04:11:37;5.82;;;3.15;;
30697;SDS011;17448;47.200;10.902;2022-07-29T04:14:04;3.17;;;2.63;;
30697;SDS011;17448;47.200;10.902;2022-07-29T04:16:37;4.03;;;2.90;;
30697;SDS011;17448;47.200;10.902;2022-07-29T04:19:03;4.30;;;3.13;;
30697;SDS011;17448;47.200;10.902;2022-07-29T04:21:39;6.22;;;3.20;;
30697;SDS011;17448;47.200;10.902;2022-07-29T04:24:06;3.78;;;2.63;;
30697;SDS011;17448;47.200;10.902;2022-07-29T04:26:33;4.07;;;2.58;;
30697;SDS011;17448;47.200;10.902;2022-07-29T04:28:59;3.22;;;2.35;;
30697;SDS011;17448;47.200;10.902;2022-07-29T04:31:28;4.43;;;2.35;;
30697;SDS011;17448;47.200;10.902;2022-07-29T04:33:55;5.72;;;3.00;;
30697;SDS011;17448;47.200;10.902;2022-07-29T04:36:21;4.28;;;2.75;;
30697;SDS011;17448;47.200;10.902;2022-07-29T04:38:47;3.95;;;2.67;;
30697;SDS011;17448;47.200;10.902;2022-07-29T04:41:13;3.65;;;2.72;;
30697;SDS011;17448;47.200;10.902;2022-07-29T04:43:39;6.10;;;2.80;;
30697;SDS011;17448;47.200;10.902;2022-07-29T04:46:05;3.47;;;2.55;;
30697;SDS011;17448;47.200;10.902;2022-07-29T04:48:32;4.15;;;2.58;;
30697;SDS011;17448;47.200;10.902;2022-07-29T04:50:58;3.08;;;2.40;;
30697;SDS011;17448;47.200;10.902;2022-07-29T04:53:25;4.07;;;2.40;;
30697;SDS011;17448;47.200;10.902;2022-07-29T04:55:52;3.50;;;2.85;;
30697;SDS011;17448;47.200;10.902;2022-07-29T04:58:18;4.32;;;2.30;;
30697;SDS011;17448;47.200;10.902;2022-07-29T05:00:44;5.88;;;2.40;;
30697;SDS011;17448;47.200;10.902;2022-07-29T05:03:10;2.67;;;2.30;;
30697;SDS011;17448;47.200;10.902;2022-07-29T05:05:37;3.65;;;2.63;;
30697;SDS011;17448;47.200;10.902;2022-07-29T05:08:03;3.85;;;2.53;;
30697;SDS011;17448;47.200;10.902;2022-07-29T05:10:29;3.60;;;2.35;;
30697;SDS011;17448;47.200;10.902;2022-07-29T05:12:56;3.60;;;2.40;;
30697;SDS011;17448;47.200;10.902;2022-07-29T05:15:22;5.50;;;2.50;;
30697;SDS011;17448;47.200;10.902;2022-07-29T05:17:48;10.80;;;3.40;;
30697;SDS011;17448;47.200;10.902;2022-07-29T05:20:14;5.18;;;3.10;;
30697;SDS011;17448;47.200;10.902;2022-07-29T05:22:41;7.80;;;3.60;;
30697;SDS011;17448;47.200;10.902;2022-07-29T05:25:07;2.88;;;2.50;;
30697;SDS011;17448;47.200;10.902;2022-07-29T05:27:35;3.30;;;2.38;;
30697;SDS011;17448;47.200;10.902;2022-07-29T05:30:02;7.47;;;2.60;;
30697;SDS011;17448;47.200;10.902;2022-07-29T05:32:28;5.55;;;2.60;;
30697;SDS011;17448;47.200;10.902;2022-07-29T05:34:54;3.90;;;2.25;;
30697;SDS011;17448;47.200;10.902;2022-07-29T05:37:21;2.63;;;2.10;;
30697;SDS011;17448;47.200;10.902;2022-07-29T05:39:47;3.75;;;2.50;;
30697;SDS011;17448;47.200;10.902;2022-07-29T05:42:13;2.42;;;2.08;;
30697;SDS011;17448;47.200;10.902;2022-07-29T05:44:39;3.58;;;2.03;;
30697;SDS011;17448;47.200;10.902;2022-07-29T05:47:06;2.70;;;2.22;;
30697;SDS011;17448;47.200;10.902;2022-07-29T05:49:35;5.20;;;2.72;;
30697;SDS011;17448;47.200;10.902;2022-07-29T05:52:01;5.90;;;3.03;;
30697;SDS011;17448;47.200;10.902;2022-07-29T05:54:28;3.50;;;2.42;;
30697;SDS011;17448;47.200;10.902;2022-07-29T05:56:54;4.07;;;2.50;;
30697;SDS011;17448;47.200;10.902;2022-07-29T05:59:20;3.78;;;2.55;;
30697;SDS011;17448;47.200;10.902;2022-07-29T06:01:47;4.57;;;2.38;;
30697;SDS011;17448;47.200;10.902;2022-07-29T06:04:13;7.05;;;2.80;;
30697;SDS011;17448;47.200;10.902;2022-07-29T06:06:39;3.38;;;2.50;;
30697;SDS011;17448;47.200;10.902;2022-07-29T06:09:05;3.75;;;2.55;;
30697;SDS011;17448;47.200;10.902;2022-07-29T06:11:33;6.47;;;2.45;;
30697;SDS011;17448;47.200;10.902;2022-07-29T06:13:59;5.57;;;2.63;;
30697;SDS011;17448;47.200;10.902;2022-07-29T06:16:25;5.47;;;2.58;;
30697;SDS011;17448;47.200;10.902;2022-07-29T06:18:51;5.13;;;2.28;;
30697;SDS011;17448;47.200;10.902;2022-07-29T06:21:17;3.92;;;2.63;;
30697;SDS011;17448;47.200;10.902;2022-07-29T06:23:44;7.18;;;3.17;;
30697;SDS011;17448;47.200;10.902;2022-07-29T06:26:11;4.20;;;3.20;;
30697;SDS011;17448;47.200;10.902;2022-07-29T06:28:37;2.97;;;2.63;;
30697;SDS011;17448;47.200;10.902;2022-07-29T06:31:04;3.35;;;2.13;;
30697;SDS011;17448;47.200;10.902;2022-07-29T06:33:30;4.32;;;2.60;;
30697;SDS011;17448;47.200;10.902;2022-07-29T06:35:57;7.00;;;2.92;;
30697;SDS011;17448;47.200;10.902;2022-07-29T06:38:23;2.00;;;1.80;;
30697;SDS011;17448;47.200;10.902;2022-07-29T06:40:49;5.45;;;3.10;;
30697;SDS011;17448;47.200;10.902;2022-07-29T06:43:29;5.07;;;3.25;;
30697;SDS011;17448;47.200;10.902;2022-07-29T06:46:01;6.05;;;3.10;;
30697;SDS011;17448;47.200;10.902;2022-07-29T06:48:27;5.10;;;2.63;;
30697;SDS011;17448;47.200;10.902;2022-07-29T06:50:54;3.28;;;2.40;;
30697;SDS011;17448;47.200;10.902;2022-07-29T06:53:20;3.03;;;2.40;;
30697;SDS011;17448;47.200;10.902;2022-07-29T06:55:47;4.25;;;2.85;;
30697;SDS011;17448;47.200;10.902;2022-07-29T06:58:13;5.30;;;2.90;;
30697;SDS011;17448;47.200;10.902;2022-07-29T07:00:41;4.72;;;2.75;;
30697;SDS011;17448;47.200;10.902;2022-07-29T07:03:07;3.00;;;2.30;;
30697;SDS011;17448;47.200;10.902;2022-07-29T07:05:33;6.90;;;2.60;;
30697;SDS011;17448;47.200;10.902;2022-07-29T07:08:00;3.53;;;2.72;;
30697;SDS011;17448;47.200;10.902;2022-07-29T07:10:26;5.40;;;3.13;;
30697;SDS011;17448;47.200;10.902;2022-07-29T07:15:29;7.70;;;3.88;;
30697;SDS011;17448;47.200;10.902;2022-07-29T07:17:55;5.18;;;2.95;;
30697;SDS011;17448;47.200;10.902;2022-07-29T07:20:22;7.88;;;4.50;;
30697;SDS011;17448;47.200;10.902;2022-07-29T07:22:48;8.10;;;3.72;;
30697;SDS011;17448;47.200;10.902;2022-07-29T07:25:15;3.83;;;2.80;;
30697;SDS011;17448;47.200;10.902;2022-07-29T07:27:43;7.43;;;3.33;;
30697;SDS011;17448;47.200;10.902;2022-07-29T07:30:09;6.28;;;2.55;;
30697;SDS011;17448;47.200;10.902;2022-07-29T07:32:35;3.55;;;2.35;;
30697;SDS011;17448;47.200;10.902;2022-07-29T07:35:02;6.00;;;2.97;;
30697;SDS011;17448;47.200;10.902;2022-07-29T07:37:29;4.00;;;2.50;;
30697;SDS011;17448;47.200;10.902;2022-07-29T07:39:55;2.20;;;2.00;;
30697;SDS011;17448;47.200;10.902;2022-07-29T07:42:21;2.53;;;1.90;;
30697;SDS011;17448;47.200;10.902;2022-07-29T07:44:47;2.85;;;2.13;;
30697;SDS011;17448;47.200;10.902;2022-07-29T07:47:14;2.33;;;1.65;;
30697;SDS011;17448;47.200;10.902;2022-07-29T07:49:47;2.42;;;2.08;;
30697;SDS011;17448;47.200;10.902;2022-07-29T07:52:15;2.65;;;1.85;;
30697;SDS011;17448;47.200;10.902;2022-07-29T07:54:41;2.20;;;1.70;;
30697;SDS011;17448;47.200;10.902;2022-07-29T07:57:09;3.63;;;1.85;;
30697;SDS011;17448;47.200;10.902;2022-07-29T07:59:35;3.17;;;1.90;;
30697;SDS011;17448;47.200;10.902;2022-07-29T08:02:01;2.35;;;1.90;;
30697;SDS011;17448;47.200;10.902;2022-07-29T08:04:28;3.45;;;2.33;;
30697;SDS011;17448;47.200;10.902;2022-07-29T08:06:54;2.42;;;1.73;;
30697;SDS011;17448;47.200;10.902;2022-07-29T08:09:22;2.92;;;2.10;;
30697;SDS011;17448;47.200;10.902;2022-07-29T08:11:48;4.38;;;2.22;;
30697;SDS011;17448;47.200;10.902;2022-07-29T08:14:14;3.15;;;2.20;;
30697;SDS011;17448;47.200;10.902;2022-07-29T08:16:40;3.28;;;2.25;;
30697;SDS011;17448;47.200;10.902;2022-07-29T08:19:07;4.35;;;2.47;;
30697;SDS011;17448;47.200;10.902;2022-07-29T08:21:34;3.90;;;1.77;;
30697;SDS011;17448;47.200;10.902;2022-07-29T08:24:00;4.32;;;2.28;;
30697;SDS011;17448;47.200;10.902;2022-07-29T08:26:45;3.30;;;1.95;;
30697;SDS011;17448;47.200;10.902;2022-07-29T08:29:12;2.08;;;1.73;;
30697;SDS011;17448;47.200;10.902;2022-07-29T08:31:39;1.63;;;1.52;;
30697;SDS011;17448;47.200;10.902;2022-07-29T08:34:05;4.43;;;2.10;;
30697;SDS011;17448;47.200;10.902;2022-07-29T08:36:32;3.78;;;2.08;;
30697;SDS011;17448;47.200;10.902;2022-07-29T08:38:58;4.00;;;1.92;;
30697;SDS011;17448;47.200;10.902;2022-07-29T08:41:25;2.38;;;2.17;;
30697;SDS011;17448;47.200;10.902;2022-07-29T08:43:51;3.92;;;1.80;;
30697;SDS011;17448;47.200;10.902;2022-07-29T08:46:18;2.90;;;2.25;;
30697;SDS011;17448;47.200;10.902;2022-07-29T08:48:45;1.92;;;1.65;;
30697;SDS011;17448;47.200;10.902;2022-07-29T08:51:16;2.33;;;1.98;;
30697;SDS011;17448;47.200;10.902;2022-07-29T08:53:46;3.67;;;1.85;;
30697;SDS011;17448;47.200;10.902;2022-07-29T08:56:17;2.83;;;2.08;;
30697;SDS011;17448;47.200;10.902;2022-07-29T08:58:43;2.22;;;2.00;;
30697;SDS011;17448;47.200;10.902;2022-07-29T09:01:10;1.83;;;1.70;;
30697;SDS011;17448;47.200;10.902;2022-07-29T09:03:37;2.70;;;1.95;;
30697;SDS011;17448;47.200;10.902;2022-07-29T09:06:04;2.83;;;1.90;;
30697;SDS011;17448;47.200;10.902;2022-07-29T09:08:33;2.55;;;2.13;;
30697;SDS011;17448;47.200;10.902;2022-07-29T09:11:02;5.53;;;2.45;;
30697;SDS011;17448;47.200;10.902;2022-07-29T09:13:28;2.92;;;2.20;;
30697;SDS011;17448;47.200;10.902;2022-07-29T09:15:55;3.63;;;2.35;;
30697;SDS011;17448;47.200;10.902;2022-07-29T09:18:37;4.32;;;2.67;;
30697;SDS011;17448;47.200;10.902;2022-07-29T09:21:04;4.25;;;2.22;;
30697;SDS011;17448;47.200;10.902;2022-07-29T09:23:59;2.90;;;2.20;;
30697;SDS011;17448;47.200;10.902;2022-07-29T09:26:28;3.38;;;2.15;;
30697;SDS011;17448;47.200;10.902;2022-07-29T09:28:54;3.25;;;2.38;;
30697;SDS011;17448;47.200;10.902;2022-07-29T09:31:26;3.78;;;2.15;;
30697;SDS011;17448;47.200;10.902;2022-07-29T09:33:58;1.70;;;1.60;;
30697;SDS011;17448;47.200;10.902;2022-07-29T09:36:25;1.73;;;1.60;;
30697;SDS011;17448;47.200;10.902;2022-07-29T09:38:58;2.70;;;1.92;;
30697;SDS011;17448;47.200;10.902;2022-07-29T09:41:25;3.63;;;2.20;;
30697;SDS011;17448;47.200;10.902;2022-07-29T09:43:55;1.73;;;1.60;;
30697;SDS011;17448;47.200;10.902;2022-07-29T09:46:22;3.35;;;2.10;;
30697;SDS011;17448;47.200;10.902;2022-07-29T09:49:05;1.90;;;1.70;;
30697;SDS011;17448;47.200;10.902;2022-07-29T09:53:58;1.95;;;1.60;;
30697;SDS011;17448;47.200;10.902;2022-07-29T09:56:41;4.40;;;2.08;;
30697;SDS011;17448;47.200;10.902;2022-07-29T09:59:07;2.05;;;1.85;;
30697;SDS011;17448;47.200;10.902;2022-07-29T10:01:34;5.22;;;1.80;;
30697;SDS011;17448;47.200;10.902;2022-07-29T10:04:01;4.72;;;1.90;;
30697;SDS011;17448;47.200;10.902;2022-07-29T10:06:27;4.00;;;1.88;;
30697;SDS011;17448;47.200;10.902;2022-07-29T10:08:54;1.60;;;1.50;;
30697;SDS011;17448;47.200;10.902;2022-07-29T10:11:20;3.47;;;1.90;;
30697;SDS011;17448;47.200;10.902;2022-07-29T10:13:47;3.70;;;1.70;;
30697;SDS011;17448;47.200;10.902;2022-07-29T10:16:14;1.90;;;1.67;;
30697;SDS011;17448;47.200;10.902;2022-07-29T10:18:42;2.20;;;1.63;;
30697;SDS011;17448;47.200;10.902;2022-07-29T10:21:09;3.58;;;2.05;;
30697;SDS011;17448;47.200;10.902;2022-07-29T10:23:35;3.08;;;1.95;;
30697;SDS011;17448;47.200;10.902;2022-07-29T10:26:02;2.13;;;1.92;;
30697;SDS011;17448;47.200;10.902;2022-07-29T10:28:32;3.92;;;2.00;;
30697;SDS011;17448;47.200;10.902;2022-07-29T10:31:05;2.60;;;1.98;;
30697;SDS011;17448;47.200;10.902;2022-07-29T10:44:09;3.25;;;2.50;;
30697;SDS011;17448;47.200;10.902;2022-07-29T10:46:39;5.53;;;2.10;;
30697;SDS011;17448;47.200;10.902;2022-07-29T10:49:06;3.28;;;1.92;;
30697;SDS011;17448;47.200;10.902;2022-07-29T10:52:15;4.55;;;2.05;;
30697;SDS011;17448;47.200;10.902;2022-07-29T10:59:47;2.08;;;1.70;;
30697;SDS011;17448;47.200;10.902;2022-07-29T11:05:02;2.20;;;2.00;;
30697;SDS011;17448;47.200;10.902;2022-07-29T11:07:29;2.78;;;2.17;;
30697;SDS011;17448;47.200;10.902;2022-07-29T11:15:15;2.63;;;2.33;;
30697;SDS011;17448;47.200;10.902;2022-07-29T11:20:39;2.47;;;2.28;;
30697;SDS011;17448;47.200;10.902;2022-07-29T11:23:26;3.00;;;2.30;;
30697;SDS011;17448;47.200;10.902;2022-07-29T11:26:12;3.10;;;2.00;;
30697;SDS011;17448;47.200;10.902;2022-07-29T11:28:59;2.40;;;2.20;;
30697;SDS011;17448;47.200;10.902;2022-07-29T11:31:46;2.15;;;1.92;;
30697;SDS011;17448;47.200;10.902;2022-07-29T11:39:40;3.65;;;2.28;;
30697;SDS011;17448;47.200;10.902;2022-07-29T11:47:49;2.80;;;2.35;;
30697;SDS011;17448;47.200;10.902;2022-07-29T11:50:36;4.18;;;2.15;;
30697;SDS011;17448;47.200;10.902;2022-07-29T11:53:03;4.00;;;2.10;;
30697;SDS011;17448;47.200;10.902;2022-07-29T11:55:36;2.83;;;2.00;;
30697;SDS011;17448;47.200;10.902;2022-07-29T11:58:03;4.97;;;2.35;;
30697;SDS011;17448;47.200;10.902;2022-07-29T12:00:33;5.70;;;2.30;;
30697;SDS011;17448;47.200;10.902;2022-07-29T12:03:04;3.47;;;2.75;;
30697;SDS011;17448;47.200;10.902;2022-07-29T12:05:32;5.13;;;2.10;;
30697;SDS011;17448;47.200;10.902;2022-07-29T12:10:34;2.83;;;1.80;;
30697;SDS011;17448;47.200;10.902;2022-07-29T12:13:01;3.08;;;2.25;;
30697;SDS011;17448;47.200;10.902;2022-07-29T12:15:30;2.42;;;2.22;;
30697;SDS011;17448;47.200;10.902;2022-07-29T12:17:57;2.72;;;2.03;;
30697;SDS011;17448;47.200;10.902;2022-07-29T12:20:27;6.70;;;2.20;;
30697;SDS011;17448;47.200;10.902;2022-07-29T12:23:03;3.13;;;2.58;;
30697;SDS011;17448;47.200;10.902;2022-07-29T12:25:32;4.13;;;2.72;;
30697;SDS011;17448;47.200;10.902;2022-07-29T12:27:59;2.97;;;2.47;;
30697;SDS011;17448;47.200;10.902;2022-07-29T12:33:11;2.80;;;2.50;;
30697;SDS011;17448;47.200;10.902;2022-07-29T12:35:49;4.25;;;2.55;;
30697;SDS011;17448;47.200;10.902;2022-07-29T12:38:16;5.75;;;2.58;;
30697;SDS011;17448;47.200;10.902;2022-07-29T12:40:42;4.90;;;2.60;;
30697;SDS011;17448;47.200;10.902;2022-07-29T12:43:10;3.40;;;2.55;;
30697;SDS011;17448;47.200;10.902;2022-07-29T12:45:43;4.07;;;2.53;;
30697;SDS011;17448;47.200;10.902;2022-07-29T12:48:10;4.60;;;2.17;;
30697;SDS011;17448;47.200;10.902;2022-07-29T12:50:50;3.17;;;2.22;;
30697;SDS011;17448;47.200;10.902;2022-07-29T12:53:18;4.63;;;2.50;;
30697;SDS011;17448;47.200;10.902;2022-07-29T12:55:45;7.45;;;2.60;;
30697;SDS011;17448;47.200;10.902;2022-07-29T13:01:18;3.97;;;2.55;;
30697;SDS011;17448;47.200;10.902;2022-07-29T13:04:10;4.43;;;2.70;;
30697;SDS011;17448;47.200;10.902;2022-07-29T13:06:40;4.28;;;2.78;;
30697;SDS011;17448;47.200;10.902;2022-07-29T13:09:08;7.88;;;2.58;;
30697;SDS011;17448;47.200;10.902;2022-07-29T13:11:37;5.57;;;2.50;;
30697;SDS011;17448;47.200;10.902;2022-07-29T13:14:03;6.22;;;2.95;;
30697;SDS011;17448;47.200;10.902;2022-07-29T13:16:30;4.22;;;2.75;;
30697;SDS011;17448;47.200;10.902;2022-07-29T13:19:03;6.13;;;2.40;;
30697;SDS011;17448;47.200;10.902;2022-07-29T13:21:30;4.53;;;2.55;;
30697;SDS011;17448;47.200;10.902;2022-07-29T13:23:58;3.33;;;2.05;;
30697;SDS011;17448;47.200;10.902;2022-07-29T13:26:25;4.85;;;2.22;;
30697;SDS011;17448;47.200;10.902;2022-07-29T13:28:53;3.30;;;2.10;;
30697;SDS011;17448;47.200;10.902;2022-07-29T13:31:19;3.80;;;2.00;;
30697;SDS011;17448;47.200;10.902;2022-07-29T13:33:48;2.63;;;1.92;;
30697;SDS011;17448;47.200;10.902;2022-07-29T13:36:15;2.13;;;1.92;;
30697;SDS011;17448;47.200;10.902;2022-07-29T13:38:42;3.90;;;2.53;;
30697;SDS011;17448;47.200;10.902;2022-07-29T13:41:10;6.18;;;2.30;;
30697;SDS011;17448;47.200;10.902;2022-07-29T13:43:37;4.53;;;2.60;;
30697;SDS011;17448;47.200;10.902;2022-07-29T13:46:06;5.55;;;2.42;;
30697;SDS011;17448;47.200;10.902;2022-07-29T13:48:33;4.13;;;2.47;;
30697;SDS011;17448;47.200;10.902;2022-07-29T13:51:00;6.40;;;2.45;;
30697;SDS011;17448;47.200;10.902;2022-07-29T13:53:26;5.22;;;2.15;;
30697;SDS011;17448;47.200;10.902;2022-07-29T13:55:54;3.42;;;2.13;;
30697;SDS011;17448;47.200;10.902;2022-07-29T13:58:20;3.88;;;2.78;;
30697;SDS011;17448;47.200;10.902;2022-07-29T14:00:46;5.05;;;2.22;;
30697;SDS011;17448;47.200;10.902;2022-07-29T14:03:13;3.38;;;2.40;;
30697;SDS011;17448;47.200;10.902;2022-07-29T14:05:39;2.03;;;1.83;;
30697;SDS011;17448;47.200;10.902;2022-07-29T14:08:05;4.28;;;2.10;;
30697;SDS011;17448;47.200;10.902;2022-07-29T14:10:32;3.17;;;2.30;;
30697;SDS011;17448;47.200;10.902;2022-07-29T14:12:58;2.10;;;1.90;;
30697;SDS011;17448;47.200;10.902;2022-07-29T14:15:24;2.85;;;2.30;;
30697;SDS011;17448;47.200;10.902;2022-07-29T14:17:56;3.75;;;2.22;;
30697;SDS011;17448;47.200;10.902;2022-07-29T14:20:22;5.78;;;2.50;;
30697;SDS011;17448;47.200;10.902;2022-07-29T14:22:48;5.10;;;2.63;;
30697;SDS011;17448;47.200;10.902;2022-07-29T14:25:15;3.80;;;2.45;;
30697;SDS011;17448;47.200;10.902;2022-07-29T14:27:42;3.45;;;2.60;;
30697;SDS011;17448;47.200;10.902;2022-07-29T14:30:08;5.18;;;2.65;;
30697;SDS011;17448;47.200;10.902;2022-07-29T14:32:35;6.18;;;2.80;;
30697;SDS011;17448;47.200;10.902;2022-07-29T14:35:01;5.95;;;3.45;;
30697;SDS011;17448;47.200;10.902;2022-07-29T14:37:27;7.03;;;3.55;;
30697;SDS011;17448;47.200;10.902;2022-07-29T14:39:54;3.53;;;2.70;;
30697;SDS011;17448;47.200;10.902;2022-07-29T14:42:24;7.47;;;3.05;;
30697;SDS011;17448;47.200;10.902;2022-07-29T14:44:50;5.55;;;3.00;;
30697;SDS011;17448;47.200;10.902;2022-07-29T14:47:17;4.15;;;2.97;;
30697;SDS011;17448;47.200;10.902;2022-07-29T14:49:43;4.28;;;2.90;;
30697;SDS011;17448;47.200;10.902;2022-07-29T14:52:09;5.22;;;3.28;;
30697;SDS011;17448;47.200;10.902;2022-07-29T14:54:36;5.20;;;3.05;;
30697;SDS011;17448;47.200;10.902;2022-07-29T14:57:08;6.43;;;3.20;;
30697;SDS011;17448;47.200;10.902;2022-07-29T14:59:34;8.13;;;3.15;;
30697;SDS011;17448;47.200;10.902;2022-07-29T15:02:00;4.78;;;3.30;;
30697;SDS011;17448;47.200;10.902;2022-07-29T15:04:27;4.53;;;2.85;;
30697;SDS011;17448;47.200;10.902;2022-07-29T15:06:56;6.90;;;2.72;;
30697;SDS011;17448;47.200;10.902;2022-07-29T15:11:50;4.90;;;2.85;;
30697;SDS011;17448;47.200;10.902;2022-07-29T15:14:17;3.97;;;2.85;;
30697;SDS011;17448;47.200;10.902;2022-07-29T15:16:46;3.45;;;2.88;;
30697;SDS011;17448;47.200;10.902;2022-07-29T15:19:15;3.45;;;2.83;;
30697;SDS011;17448;47.200;10.902;2022-07-29T15:21:42;6.10;;;3.60;;
30697;SDS011;17448;47.200;10.902;2022-07-29T15:24:08;4.80;;;3.10;;
30697;SDS011;17448;47.200;10.902;2022-07-29T15:26:38;6.50;;;3.28;;
30697;SDS011;17448;47.200;10.902;2022-07-29T15:29:04;6.65;;;2.92;;
30697;SDS011;17448;47.200;10.902;2022-07-29T15:31:30;5.63;;;2.70;;
30697;SDS011;17448;47.200;10.902;2022-07-29T15:33:57;3.97;;;2.72;;
30697;SDS011;17448;47.200;10.902;2022-07-29T15:36:26;7.82;;;2.88;;
30697;SDS011;17448;47.200;10.902;2022-07-29T15:38:52;4.65;;;3.08;;
30697;SDS011;17448;47.200;10.902;2022-07-29T15:41:19;5.30;;;3.38;;
30697;SDS011;17448;47.200;10.902;2022-07-29T15:43:46;5.20;;;3.15;;
30697;SDS011;17448;47.200;10.902;2022-07-29T15:46:16;8.23;;;3.60;;
30697;SDS011;17448;47.200;10.902;2022-07-29T15:49:01;4.07;;;2.80;;
30697;SDS011;17448;47.200;10.902;2022-07-29T15:51:28;5.35;;;3.03;;
30697;SDS011;17448;47.200;10.902;2022-07-29T15:53:54;4.25;;;3.10;;
30697;SDS011;17448;47.200;10.902;2022-07-29T15:56:20;6.45;;;3.17;;
30697;SDS011;17448;47.200;10.902;2022-07-29T15:58:50;3.15;;;2.85;;